This is the latest recevied weather packets stored in our database for station/object SP2TMT-10. If no packets are shown the sender has not sent any weather packets the latest 10 day(s).
| Time | Temp. | Humidity | Pressure | Rain* | Wind** | Luminosity | Snow |
|---|---|---|---|---|---|---|---|
| 1777839200 | 22.78° C | 35% | 1011.7 hPa | - | - | - | - |
| 1777838300 | 22.78° C | 36% | 1011.7 hPa | - | - | - | - |
| 1777835600 | 22.78° C | 34% | 1011.6 hPa | - | - | - | - |
| 1777832899 | 22.78° C | 36% | 1011.5 hPa | - | - | - | - |
| 1777831999 | 23.33° C | 36% | 1011.4 hPa | - | - | - | - |
| 1777829299 | 25° C | 42% | 1011.3 hPa | - | - | - | - |
| 1777823893 | 22.22° C | 25% | 1011.6 hPa | - | - | - | - |
| 1777822093 | 22.22° C | 28% | 1011.6 hPa | - | - | - | - |
| 1777821193 | 22.22° C | 26% | 1011.7 hPa | - | - | - | - |
| 1777805886 | 21.67° C | 33% | 1014.3 hPa | - | - | - | - |
| 1777804986 | 21.67° C | 32% | 1014.3 hPa | - | - | - | - |
| 1777804086 | 21.67° C | 33% | 1014.4 hPa | - | - | - | - |
| 1777803185 | 21.11° C | 35% | 1014.7 hPa | - | - | - | - |
| 1777802285 | 21.67° C | 35% | 1014.8 hPa | - | - | - | - |
| 1777800485 | 21.11° C | 38% | 1014.9 hPa | - | - | - | - |
| 1777799580 | 21.11° C | 35% | 1015.2 hPa | - | - | - | - |
| 1777798680 | 21.11° C | 34% | 1015.4 hPa | - | - | - | - |
| 1777797780 | 21.11° C | 35% | 1015.5 hPa | - | - | - | - |
| 1777796880 | 21.11° C | 36% | 1015.6 hPa | - | - | - | - |
| 1777795979 | 21.11° C | 36% | 1015.6 hPa | - | - | - | - |
| 1777795079 | 21.11° C | 36% | 1015.7 hPa | - | - | - | - |
| 1777793279 | 21.11° C | 36% | 1015.9 hPa | - | - | - | - |
| 1777792379 | 21.11° C | 36% | 1016 hPa | - | - | - | - |
| 1777791479 | 21.11° C | 36% | 1016.2 hPa | - | - | - | - |
| 1777790579 | 21.11° C | 36% | 1016.1 hPa | - | - | - | - |
* Rain since midnight (hover to see other rain measurements)
** Current wind speed in m/s (hover to see current wind gust speed)